createdAt,value
2018-06-23T00:02:24.895Z,89.20
2018-06-23T00:04:53.076Z,89.30
2018-06-23T00:07:21.279Z,89.30
2018-06-23T00:09:49.468Z,89.00
2018-06-23T00:12:17.631Z,88.60
2018-06-23T00:14:45.807Z,89.20
2018-06-23T00:17:13.963Z,88.80
2018-06-23T00:19:42.185Z,89.00
2018-06-23T00:22:10.371Z,89.30
2018-06-23T00:24:38.559Z,89.50
2018-06-23T00:27:06.745Z,89.40
2018-06-23T00:29:34.904Z,89.70
2018-06-23T00:32:03.080Z,90.00
2018-06-23T00:36:59.219Z,90.10
2018-06-23T00:39:27.388Z,90.20
2018-06-23T00:41:55.571Z,90.10
2018-06-23T00:44:23.740Z,90.10
2018-06-23T00:46:51.925Z,90.20
2018-06-23T00:49:20.094Z,90.30
2018-06-23T00:51:48.279Z,90.30
2018-06-23T00:54:16.459Z,90.30
2018-06-23T00:56:44.676Z,90.50
2018-06-23T00:59:24.180Z,90.30
2018-06-23T01:01:52.368Z,90.50
2018-06-23T01:04:20.535Z,90.50
2018-06-23T01:06:48.724Z,90.50
2018-06-23T01:09:16.908Z,90.50
2018-06-23T01:11:45.098Z,90.60
2018-06-23T01:14:13.283Z,90.50
2018-06-23T01:16:41.465Z,90.60
2018-06-23T01:19:09.637Z,90.50
2018-06-23T01:21:37.830Z,90.80
2018-06-23T01:24:06.004Z,90.90
2018-06-23T01:26:34.185Z,90.80
2018-06-23T01:29:02.340Z,90.90
2018-06-23T01:31:30.525Z,90.90
2018-06-23T01:33:58.734Z,91.20
2018-06-23T01:36:26.925Z,91.20
2018-06-23T01:38:55.095Z,91.10
2018-06-23T01:41:23.284Z,91.10
2018-06-23T01:43:51.466Z,91.20
2018-06-23T01:46:19.634Z,91.10
2018-06-23T01:48:48.019Z,91.10
2018-06-23T01:51:16.463Z,91.10
2018-06-23T01:53:44.645Z,91.20
2018-06-23T01:56:12.845Z,91.30
2018-06-23T01:58:41.048Z,91.30
2018-06-23T02:01:09.287Z,91.30
2018-06-23T02:03:37.455Z,91.30
2018-06-23T02:06:05.716Z,91.40
2018-06-23T02:08:33.877Z,91.30
2018-06-23T02:11:02.048Z,91.30
2018-06-23T02:13:30.262Z,91.30
2018-06-23T02:16:03.905Z,91.50
2018-06-23T02:19:39.956Z,91.60
2018-06-23T02:22:15.351Z,91.60
2018-06-23T02:24:48.901Z,91.50
2018-06-23T02:27:22.559Z,91.50
2018-06-23T02:29:56.196Z,91.60
2018-06-23T02:32:29.871Z,91.60
2018-06-23T02:35:04.275Z,91.70
2018-06-23T02:37:33.849Z,91.80
2018-06-23T02:40:02.024Z,92.00
2018-06-23T02:42:30.201Z,92.10
2018-06-23T02:44:58.363Z,92.10
2018-06-23T02:47:26.548Z,92.00
2018-06-23T02:49:55.836Z,92.00
2018-06-23T02:52:24.021Z,91.90
2018-06-23T02:54:52.180Z,91.90
2018-06-23T02:57:20.376Z,91.90
2018-06-23T02:59:49.592Z,92.00
2018-06-23T03:02:17.777Z,92.00
2018-06-23T03:04:45.953Z,92.10
2018-06-23T03:07:14.207Z,92.30
2018-06-23T03:09:42.368Z,92.40
2018-06-23T03:12:10.545Z,92.60
2018-06-23T03:14:38.732Z,92.60
2018-06-23T03:17:12.225Z,92.50
2018-06-23T03:19:40.411Z,92.60
2018-06-23T03:22:08.614Z,92.60
2018-06-23T03:24:36.803Z,92.70
2018-06-23T03:27:05.053Z,92.70
2018-06-23T03:29:33.307Z,92.70
2018-06-23T03:32:01.565Z,92.60
2018-06-23T03:34:30.017Z,92.70
2018-06-23T03:39:26.158Z,93.00
2018-06-23T03:41:54.929Z,93.00
2018-06-23T03:44:23.113Z,93.00
2018-06-23T03:46:51.520Z,93.00
2018-06-23T03:49:19.740Z,93.00
2018-06-23T03:51:47.932Z,93.10
2018-06-23T03:54:16.144Z,93.00
2018-06-23T03:56:44.344Z,93.00
2018-06-23T03:59:12.600Z,93.00
2018-06-23T04:01:40.773Z,92.90
2018-06-23T04:04:09.332Z,93.00
2018-06-23T04:06:37.569Z,93.20
2018-06-23T04:09:08.059Z,93.30
2018-06-23T04:11:36.504Z,93.30
2018-06-23T04:14:05.317Z,93.20
2018-06-23T04:16:33.570Z,93.20
2018-06-23T04:19:01.778Z,93.20
2018-06-23T04:21:30.712Z,93.20
2018-06-23T04:26:27.500Z,93.30
2018-06-23T04:28:55.893Z,93.40
2018-06-23T04:31:24.074Z,93.40
2018-06-23T04:33:52.264Z,93.60
2018-06-23T04:36:20.454Z,93.70
2018-06-23T04:38:48.651Z,93.90
2018-06-23T04:41:16.850Z,94.00
2018-06-23T04:43:45.031Z,94.10
2018-06-23T04:46:13.500Z,94.10
2018-06-23T04:48:41.694Z,94.10
2018-06-23T04:51:09.874Z,94.20
2018-06-23T04:53:46.281Z,94.30
2018-06-23T04:56:14.783Z,94.30
2018-06-23T04:58:43.038Z,94.40
2018-06-23T05:01:11.377Z,94.40
2018-06-23T05:03:39.643Z,94.50
2018-06-23T05:06:07.925Z,94.60
2018-06-23T05:08:37.061Z,94.60
2018-06-23T05:13:33.373Z,94.80
2018-06-23T05:16:01.568Z,94.90
2018-06-23T05:20:57.733Z,95.10
2018-06-23T05:23:25.948Z,95.20
2018-06-23T05:25:54.168Z,95.30
2018-06-23T05:28:22.373Z,95.50
2018-06-23T05:30:50.583Z,95.80
2018-06-23T05:33:20.213Z,95.90
2018-06-23T05:38:16.433Z,96.00
2018-06-23T05:40:44.648Z,96.10
2018-06-23T05:43:12.881Z,96.20
2018-06-23T05:45:41.169Z,96.20
2018-06-23T05:48:09.694Z,96.20
2018-06-23T05:50:37.905Z,96.20
2018-06-23T05:53:06.108Z,96.20
2018-06-23T05:58:02.343Z,96.20
2018-06-23T06:00:30.532Z,96.00
2018-06-23T06:02:58.750Z,95.90
2018-06-23T06:05:26.941Z,96.00
2018-06-23T06:07:55.173Z,95.90
2018-06-23T06:10:23.441Z,95.90
2018-06-23T06:12:51.650Z,95.70
2018-06-23T06:15:19.873Z,95.40
2018-06-23T06:17:48.123Z,95.70
2018-06-23T06:20:16.758Z,95.30
2018-06-23T06:22:46.141Z,94.70
2018-06-23T06:25:14.927Z,94.20
2018-06-23T06:30:11.790Z,93.80
2018-06-23T06:32:40.001Z,93.30
2018-06-23T06:35:08.317Z,92.90
2018-06-23T06:37:36.638Z,92.90
2018-06-23T06:40:05.685Z,92.40
2018-06-23T06:42:33.896Z,91.80
2018-06-23T06:45:02.097Z,91.80
2018-06-23T06:47:30.298Z,91.90
2018-06-23T06:49:58.504Z,91.20
2018-06-23T06:52:26.690Z,90.90
2018-06-23T06:54:54.885Z,90.90
2018-06-23T06:57:23.091Z,91.00
2018-06-23T06:59:51.273Z,90.70
2018-06-23T07:02:19.531Z,90.30
2018-06-23T07:04:47.729Z,90.40
2018-06-23T07:07:15.967Z,90.00
2018-06-23T07:09:44.160Z,89.00
2018-06-23T07:12:12.389Z,87.50
2018-06-23T07:14:40.570Z,87.70
2018-06-23T07:17:08.798Z,85.40
2018-06-23T07:19:37.851Z,86.40
2018-06-23T07:22:06.084Z,86.80
2018-06-23T07:24:34.280Z,86.40
2018-06-23T07:27:02.494Z,85.00
2018-06-23T07:29:30.724Z,83.20
2018-06-23T07:31:58.922Z,83.00
2018-06-23T07:34:27.214Z,84.40
2018-06-23T07:36:55.339Z,83.70
2018-06-23T07:39:23.530Z,84.90
2018-06-23T07:41:51.768Z,85.10
2018-06-23T07:44:19.962Z,83.40
2018-06-23T07:46:48.165Z,84.00
2018-06-23T07:49:16.333Z,82.10
2018-06-23T07:51:44.557Z,81.40
2018-06-23T07:54:12.754Z,80.60
2018-06-23T07:56:40.949Z,79.40
2018-06-23T07:59:09.128Z,77.30
2018-06-23T08:01:37.581Z,77.30
2018-06-23T08:04:05.770Z,78.70
2018-06-23T08:06:33.962Z,79.30
2018-06-23T08:09:02.163Z,80.10
2018-06-23T08:11:30.380Z,77.10
2018-06-23T08:13:58.564Z,77.40
2018-06-23T08:16:26.817Z,77.20
2018-06-23T08:18:55.038Z,75.60
2018-06-23T08:21:23.222Z,73.80
2018-06-23T08:23:51.412Z,73.90
2018-06-23T08:26:19.697Z,73.50
2018-06-23T08:28:47.821Z,72.90
2018-06-23T08:31:16.008Z,72.30
2018-06-23T08:33:44.274Z,71.40
2018-06-23T08:36:12.534Z,68.90
2018-06-23T08:38:40.717Z,68.40
2018-06-23T08:41:08.937Z,67.50
2018-06-23T08:43:37.209Z,66.20
2018-06-23T08:46:05.364Z,66.20
2018-06-23T08:48:33.642Z,60.80
2018-06-23T08:53:29.972Z,61.10
2018-06-23T08:55:58.190Z,61.10
2018-06-23T08:58:26.491Z,62.10
2018-06-23T09:00:54.684Z,62.60
2018-06-23T09:03:22.903Z,61.20
2018-06-23T09:05:51.114Z,62.10
2018-06-23T09:08:19.340Z,60.80
2018-06-23T09:10:47.534Z,58.60
2018-06-23T09:13:15.778Z,58.80
2018-06-23T09:18:12.077Z,58.60
2018-06-23T09:20:40.285Z,57.80
2018-06-23T09:23:08.520Z,55.40
2018-06-23T09:25:36.789Z,55.70
2018-06-23T09:28:05.165Z,57.20
2018-06-23T09:30:33.542Z,56.10
2018-06-23T09:33:01.760Z,55.90
2018-06-23T09:35:30.017Z,55.40
2018-06-23T09:37:58.244Z,56.70
2018-06-23T09:40:26.466Z,55.90
2018-06-23T09:42:55.164Z,56.10
2018-06-23T09:50:19.284Z,56.20
2018-06-23T09:52:47.514Z,56.00
2018-06-23T09:55:15.732Z,53.40
2018-06-23T09:57:43.958Z,54.60
2018-06-23T10:00:15.977Z,54.80
2018-06-23T10:02:45.575Z,54.80
2018-06-23T10:05:13.817Z,55.20
2018-06-23T10:07:42.049Z,55.10
2018-06-23T10:10:10.237Z,53.30
2018-06-23T10:12:38.456Z,53.90
2018-06-23T10:15:06.793Z,54.30
2018-06-23T10:17:35.019Z,54.90
2018-06-23T10:20:03.350Z,55.20
2018-06-23T10:22:31.651Z,53.70
2018-06-23T10:24:59.834Z,52.80
2018-06-23T10:27:28.169Z,52.70
2018-06-23T10:32:24.297Z,50.90
2018-06-23T10:34:52.560Z,50.70
2018-06-23T10:37:20.781Z,51.60
2018-06-23T10:39:49.095Z,49.70
2018-06-23T10:42:17.354Z,48.70
2018-06-23T10:44:45.654Z,50.40
2018-06-23T10:47:13.859Z,52.20
2018-06-23T10:49:42.775Z,51.50
2018-06-23T10:52:11.052Z,52.20
2018-06-23T10:54:39.291Z,50.30
2018-06-23T10:57:07.495Z,50.50
2018-06-23T10:59:35.774Z,50.30
2018-06-23T11:02:03.996Z,50.40
2018-06-23T11:04:32.291Z,51.40
2018-06-23T11:07:00.523Z,50.60
2018-06-23T11:09:28.741Z,49.60
2018-06-23T11:11:56.981Z,48.70
2018-06-23T11:14:25.168Z,47.90
2018-06-23T11:16:53.466Z,48.90
2018-06-23T11:19:21.657Z,49.60
2018-06-23T11:21:49.862Z,50.50
2018-06-23T11:24:18.174Z,50.00
2018-06-23T11:26:46.295Z,47.90
2018-06-23T11:29:14.516Z,48.40
2018-06-23T11:31:42.710Z,47.80
2018-06-23T11:34:10.917Z,48.00
2018-06-23T11:39:08.669Z,43.80
2018-06-23T11:41:38.117Z,46.90
2018-06-23T11:44:06.303Z,48.30
2018-06-23T11:46:34.539Z,48.70
2018-06-23T11:49:02.771Z,48.20
2018-06-23T11:51:30.960Z,48.10
2018-06-23T11:53:59.181Z,47.80
2018-06-23T11:56:27.446Z,47.40
2018-06-23T12:01:23.862Z,47.70
2018-06-23T12:03:52.065Z,46.30
2018-06-23T12:06:22.195Z,46.40
2018-06-23T12:08:50.405Z,45.40
2018-06-23T12:11:18.601Z,46.20
2018-06-23T12:13:46.809Z,47.70
2018-06-23T12:16:15.002Z,47.00
2018-06-23T12:18:44.278Z,47.10
2018-06-23T12:21:12.770Z,45.20
2018-06-23T12:23:41.192Z,44.60
2018-06-23T12:26:09.417Z,46.00
2018-06-23T12:31:05.665Z,47.50
2018-06-23T12:33:34.274Z,48.20
2018-06-23T12:36:02.486Z,45.60
2018-06-23T12:38:31.418Z,46.70
2018-06-23T12:40:59.629Z,46.60
2018-06-23T12:43:27.821Z,45.20
2018-06-23T12:45:56.031Z,45.30
2018-06-23T12:50:52.206Z,43.90
2018-06-23T12:53:20.402Z,43.00
2018-06-23T12:55:48.590Z,43.20
2018-06-23T12:58:16.777Z,44.90
2018-06-23T13:00:45.054Z,44.30
2018-06-23T13:03:13.253Z,45.40
2018-06-23T13:05:41.445Z,45.10
2018-06-23T13:08:09.965Z,43.30
2018-06-23T13:10:38.453Z,43.30
2018-06-23T13:13:06.678Z,43.70
2018-06-23T13:15:34.902Z,45.00
2018-06-23T13:18:03.234Z,44.30
2018-06-23T13:20:31.449Z,43.00
2018-06-23T13:22:59.674Z,44.00
2018-06-23T13:25:27.869Z,44.50
2018-06-23T13:27:56.067Z,45.20
2018-06-23T13:30:24.306Z,43.80
2018-06-23T13:32:52.488Z,44.20
2018-06-23T13:35:20.709Z,45.00
2018-06-23T13:37:48.930Z,44.40
2018-06-23T13:40:17.100Z,44.20
2018-06-23T13:42:45.288Z,44.50
2018-06-23T13:45:13.518Z,43.60
2018-06-23T13:47:42.126Z,43.70
2018-06-23T13:50:10.310Z,44.30
2018-06-23T13:52:38.501Z,43.10
2018-06-23T13:55:06.723Z,43.60
2018-06-23T13:57:34.888Z,42.60
2018-06-23T14:00:03.114Z,42.40
2018-06-23T14:02:31.289Z,41.70
2018-06-23T14:04:59.490Z,42.10
2018-06-23T14:07:27.702Z,42.80
2018-06-23T14:09:55.904Z,43.30
2018-06-23T14:12:24.073Z,43.20
2018-06-23T14:19:54.900Z,42.30
2018-06-23T14:22:23.097Z,42.70
2018-06-23T14:24:51.455Z,41.70
2018-06-23T14:27:19.645Z,43.70
2018-06-23T14:29:47.849Z,44.10
2018-06-23T14:32:16.168Z,44.30
2018-06-23T14:34:44.293Z,42.90
2018-06-23T14:37:12.476Z,43.60
2018-06-23T14:39:40.681Z,43.60
2018-06-23T14:42:08.929Z,43.30
2018-06-23T14:44:37.213Z,42.90
2018-06-23T14:47:05.392Z,42.80
2018-06-23T14:49:33.896Z,42.50
2018-06-23T14:52:02.218Z,41.80
2018-06-23T14:54:30.425Z,42.00
2018-06-23T14:56:58.682Z,42.90
2018-06-23T14:59:27.004Z,43.20
2018-06-23T15:02:00.274Z,42.70
2018-06-23T15:04:28.966Z,42.50
2018-06-23T15:06:57.174Z,41.90
2018-06-23T15:09:38.636Z,42.10
2018-06-23T15:12:19.676Z,41.80
2018-06-23T15:14:51.319Z,40.50
2018-06-23T15:17:21.837Z,42.20
2018-06-23T15:19:50.014Z,42.10
2018-06-23T15:22:18.344Z,40.20
2018-06-23T15:24:46.405Z,37.20
2018-06-23T15:27:14.604Z,35.40
2018-06-23T15:29:42.779Z,32.10
2018-06-23T15:32:10.979Z,31.50
2018-06-23T15:34:39.653Z,28.70
2018-06-23T15:37:07.854Z,27.20
2018-06-23T15:39:38.341Z,26.40
2018-06-23T15:42:06.572Z,25.50
2018-06-23T15:44:34.783Z,24.30
2018-06-23T15:47:03.399Z,23.80
2018-06-23T15:49:31.641Z,23.00
2018-06-23T15:51:59.854Z,22.80
2018-06-23T15:54:28.062Z,22.30
2018-06-23T15:59:24.488Z,23.10
2018-06-23T16:01:53.031Z,24.20
2018-06-23T16:04:21.217Z,25.30
2018-06-23T16:06:49.455Z,26.50
2018-06-23T16:09:17.647Z,27.60
2018-06-23T16:11:45.841Z,28.90
2018-06-23T16:14:14.036Z,30.00
2018-06-23T16:16:42.229Z,31.80
2018-06-23T16:19:10.419Z,34.10
2018-06-23T16:21:38.615Z,33.40
2018-06-23T16:24:06.805Z,34.60
2018-06-23T16:26:35.014Z,35.00
2018-06-23T16:29:03.246Z,36.70
2018-06-23T16:31:31.470Z,36.20
2018-06-23T16:33:59.665Z,37.10
2018-06-23T16:36:27.890Z,36.40
2018-06-23T16:38:56.131Z,37.10
2018-06-23T16:41:24.319Z,37.80
2018-06-23T16:43:52.515Z,39.10
2018-06-23T16:46:20.726Z,39.70
2018-06-23T16:48:48.938Z,38.90
2018-06-23T16:51:17.163Z,38.60
2018-06-23T16:53:45.325Z,38.80
2018-06-23T16:56:13.513Z,38.50
2018-06-23T16:58:43.156Z,38.90
2018-06-23T17:01:11.381Z,39.40
2018-06-23T17:03:39.664Z,39.60
2018-06-23T17:06:07.814Z,39.50
2018-06-23T17:08:36.012Z,39.50
2018-06-23T17:11:04.255Z,40.10
2018-06-23T17:13:32.446Z,40.90
2018-06-23T17:16:00.632Z,39.70
2018-06-23T17:18:28.850Z,40.40
2018-06-23T17:20:57.042Z,40.40
2018-06-23T17:23:25.262Z,41.50
2018-06-23T17:25:53.458Z,41.90
2018-06-23T17:28:21.650Z,41.80
2018-06-23T17:30:49.853Z,41.40
2018-06-23T17:33:18.055Z,41.40
2018-06-23T17:35:46.236Z,42.10
2018-06-23T17:38:14.438Z,42.20
2018-06-23T17:40:42.631Z,41.70
2018-06-23T17:43:10.833Z,42.50
2018-06-23T17:45:39.026Z,41.70
2018-06-23T17:48:07.253Z,42.20
2018-06-23T17:50:35.474Z,42.30
2018-06-23T17:53:03.704Z,42.50
2018-06-23T17:55:31.916Z,43.50
2018-06-23T17:58:00.163Z,43.80
2018-06-23T18:00:28.309Z,43.50
2018-06-23T18:02:56.501Z,43.10
2018-06-23T18:05:24.701Z,43.60
2018-06-23T18:07:52.905Z,45.20
2018-06-23T18:10:21.109Z,44.70
2018-06-23T18:12:49.327Z,45.40
2018-06-23T18:15:17.517Z,45.30
2018-06-23T18:17:45.812Z,45.30
2018-06-23T18:20:14.025Z,45.50
2018-06-23T18:22:42.231Z,45.90
2018-06-23T18:25:10.418Z,45.30
2018-06-23T18:27:38.689Z,45.70
2018-06-23T18:30:06.879Z,46.60
2018-06-23T18:32:35.398Z,46.20
2018-06-23T18:35:03.601Z,46.20
2018-06-23T18:37:31.804Z,45.70
2018-06-23T18:39:59.988Z,46.60
2018-06-23T18:42:28.164Z,47.40
2018-06-23T18:44:56.517Z,48.50
2018-06-23T18:47:24.702Z,49.10
2018-06-23T18:49:52.901Z,49.30
2018-06-23T18:52:21.105Z,49.80
2018-06-23T18:54:49.293Z,50.10
2018-06-23T18:57:17.492Z,50.30
2018-06-23T18:59:45.701Z,50.70
2018-06-23T19:02:13.921Z,51.20
2018-06-23T19:04:42.132Z,51.70
2018-06-23T19:07:10.673Z,52.30
2018-06-23T19:09:38.866Z,52.70
2018-06-23T19:12:07.089Z,53.10
2018-06-23T19:14:35.411Z,53.80
2018-06-23T19:17:03.588Z,54.70
2018-06-23T19:19:31.821Z,55.10
2018-06-23T19:21:59.978Z,55.70
2018-06-23T19:24:28.176Z,56.00
2018-06-23T19:26:56.655Z,56.20
2018-06-23T19:29:24.865Z,56.40
2018-06-23T19:31:53.048Z,56.80
2018-06-23T19:34:21.255Z,57.40
2018-06-23T19:36:49.574Z,57.70
2018-06-23T19:39:17.803Z,57.90
2018-06-23T19:41:45.996Z,57.70
2018-06-23T19:44:14.202Z,57.80
2018-06-23T19:46:42.377Z,58.30
2018-06-23T19:49:11.438Z,58.90
2018-06-23T19:51:39.629Z,59.30
2018-06-23T19:54:07.817Z,59.80
2018-06-23T19:56:36.026Z,60.40
2018-06-23T20:01:32.193Z,61.50
2018-06-23T20:04:00.380Z,62.00
2018-06-23T20:06:28.599Z,62.50
2018-06-23T20:08:56.863Z,62.90
2018-06-23T20:11:25.119Z,63.10
2018-06-23T20:13:53.331Z,63.50
2018-06-23T20:16:21.557Z,63.90
2018-06-23T20:18:49.741Z,64.50
2018-06-23T20:21:17.965Z,65.10
2018-06-23T20:23:46.219Z,65.60
2018-06-23T20:29:05.502Z,66.50
2018-06-23T20:31:33.703Z,66.50
2018-06-23T20:34:01.909Z,67.20
2018-06-23T20:36:30.093Z,67.70
2018-06-23T20:38:58.307Z,68.00
2018-06-23T20:41:26.507Z,68.50
2018-06-23T20:43:54.709Z,69.10
2018-06-23T20:46:22.931Z,69.10
2018-06-23T20:48:51.118Z,69.10
2018-06-23T20:51:19.368Z,69.00
2018-06-23T20:53:49.958Z,68.50
2018-06-23T20:56:18.156Z,68.50
2018-06-23T20:58:47.002Z,68.70
2018-06-23T21:01:15.250Z,68.80
2018-06-23T21:03:43.420Z,69.00
2018-06-23T21:06:11.607Z,69.20
2018-06-23T21:08:39.813Z,69.30
2018-06-23T21:11:08.024Z,69.80
2018-06-23T21:16:04.153Z,69.70
2018-06-23T21:18:32.344Z,70.20
2018-06-23T21:21:00.561Z,70.30
2018-06-23T21:23:29.043Z,70.60
2018-06-23T21:25:57.243Z,70.70
2018-06-23T21:28:25.435Z,70.90
2018-06-23T21:30:53.646Z,71.30
2018-06-23T21:33:21.951Z,71.50
2018-06-23T21:35:50.107Z,72.10
2018-06-23T21:38:18.388Z,72.60
2018-06-23T21:40:47.416Z,73.20
2018-06-23T21:45:43.560Z,74.40
2018-06-23T21:48:11.746Z,75.60
2018-06-23T21:50:40.070Z,76.20
2018-06-23T21:53:08.432Z,76.40
2018-06-23T21:55:36.625Z,76.60
2018-06-23T21:58:04.957Z,77.20
2018-06-23T22:00:38.328Z,77.50
2018-06-23T22:03:07.840Z,77.90
2018-06-23T22:05:36.084Z,78.30
2018-06-23T22:08:04.570Z,78.90
2018-06-23T22:10:32.836Z,79.10
2018-06-23T22:13:01.035Z,79.10
2018-06-23T22:17:57.327Z,79.30
2018-06-23T22:20:25.529Z,79.80
2018-06-23T22:22:54.040Z,79.90
2018-06-23T22:25:22.816Z,80.10
2018-06-23T22:30:19.577Z,80.60
2018-06-23T22:32:47.781Z,80.00
2018-06-23T22:35:15.984Z,79.60
2018-06-23T22:37:44.256Z,79.00
2018-06-23T22:40:12.468Z,78.90
2018-06-23T22:42:40.674Z,78.10
2018-06-23T22:45:08.957Z,78.00
2018-06-23T22:47:42.855Z,77.90
2018-06-23T22:50:11.233Z,78.10
2018-06-23T22:52:40.152Z,78.20
2018-06-23T22:55:09.771Z,79.00
2018-06-23T22:57:37.981Z,79.10
2018-06-23T23:00:09.318Z,79.70
2018-06-23T23:02:37.525Z,80.00
2018-06-23T23:05:06.234Z,80.60
2018-06-23T23:07:34.705Z,81.10
2018-06-23T23:10:02.909Z,81.80
2018-06-23T23:12:31.102Z,82.20
2018-06-23T23:14:59.277Z,82.70
2018-06-23T23:17:27.528Z,83.00
2018-06-23T23:19:55.777Z,83.40
2018-06-23T23:22:23.991Z,83.80
2018-06-23T23:24:52.249Z,84.20
2018-06-23T23:27:20.476Z,84.60
2018-06-23T23:29:48.691Z,85.20
2018-06-23T23:32:16.890Z,85.50
2018-06-23T23:34:45.074Z,85.80
2018-06-23T23:37:13.307Z,85.90
2018-06-23T23:39:41.504Z,86.10
2018-06-23T23:42:09.837Z,86.20
2018-06-23T23:44:38.029Z,86.40
2018-06-23T23:47:06.285Z,86.60
2018-06-23T23:49:34.485Z,86.90
2018-06-23T23:52:02.706Z,87.10
2018-06-23T23:54:30.888Z,87.00
2018-06-23T23:56:59.087Z,87.00
2018-06-23T23:59:27.368Z,87.40
